Terminal Aerodrome Forecast
Issued by NWS

Home | Current Version | Previous Version | Graphics & Text | Print | Product List | Glossary On
Versions: 1 2 3 4 5 6 7 8 9 10 11 12
033
FTUS43 KMPX 261125
TAFRWF
TAF
KRWF 261125Z 2612/2712 30007KT P6SM SKC
     FM261600 34007KT P6SM FEW060
     FM270100 28003KT P6SM SKC
     FM270600 23005KT P6SM SKC=

USA.gov is the U.S. government's official web portal to all federal, state and local government web resources and services.